createdAt,value
2022-12-05T00:02:23.375Z,9.98
2022-12-05T00:04:53.724Z,9.55
2022-12-05T00:07:23.688Z,9.75
2022-12-05T00:09:54.500Z,10.68
2022-12-05T00:12:24.972Z,10.77
2022-12-05T00:14:55.005Z,9.38
2022-12-05T00:17:25.260Z,10.23
2022-12-05T00:19:57.082Z,10.52
2022-12-05T00:22:29.718Z,10.48
2022-12-05T00:25:00.090Z,10.05
2022-12-05T00:27:30.269Z,9.50
2022-12-05T00:30:00.816Z,9.18
2022-12-05T00:32:32.573Z,9.60
2022-12-05T00:35:02.718Z,9.27
2022-12-05T00:37:32.887Z,9.88
2022-12-05T00:40:03.475Z,9.85
2022-12-05T00:42:34.412Z,9.80
2022-12-05T00:45:04.619Z,8.95
2022-12-05T00:47:38.585Z,8.70
2022-12-05T00:50:12.167Z,9.82
2022-12-05T00:52:42.708Z,9.80
2022-12-05T00:55:12.984Z,9.10
2022-12-05T00:57:42.932Z,10.15
2022-12-05T01:00:13.399Z,10.02
2022-12-05T01:02:43.540Z,9.30
2022-12-05T01:05:13.707Z,9.40
2022-12-05T01:07:44.972Z,10.32
2022-12-05T01:10:15.313Z,9.95
2022-12-05T01:12:45.450Z,10.65
2022-12-05T01:15:15.619Z,9.10
2022-12-05T01:17:45.811Z,9.52
2022-12-05T01:20:16.271Z,9.18
2022-12-05T01:22:46.432Z,8.70
2022-12-05T01:25:16.662Z,8.93
2022-12-05T01:27:47.758Z,8.05
2022-12-05T01:30:18.384Z,8.00
2022-12-05T01:32:48.549Z,7.90
2022-12-05T01:38:06.256Z,8.35
2022-12-05T01:40:41.108Z,8.50
2022-12-05T01:43:20.647Z,8.50
2022-12-05T01:45:50.861Z,8.30
2022-12-05T01:48:30.741Z,8.05
2022-12-05T01:51:20.482Z,8.38
2022-12-05T01:53:51.175Z,7.63
2022-12-05T01:56:22.456Z,8.00
2022-12-05T01:58:54.858Z,9.07
2022-12-05T02:01:26.490Z,8.73
2022-12-05T02:04:00.812Z,8.73
2022-12-05T02:06:31.272Z,8.32
2022-12-05T02:09:19.689Z,7.95
2022-12-05T02:11:56.784Z,7.35
2022-12-05T02:15:22.155Z,8.75
2022-12-05T02:18:23.618Z,7.18
2022-12-05T02:21:15.188Z,8.88
2022-12-05T02:26:33.106Z,9.68
2022-12-05T02:29:32.177Z,9.68
2022-12-05T02:32:14.514Z,9.02
2022-12-05T02:34:59.327Z,8.80
2022-12-05T02:38:05.830Z,8.40
2022-12-05T02:40:52.734Z,8.20
2022-12-05T02:43:25.457Z,9.00
2022-12-05T02:46:22.924Z,7.50
2022-12-05T02:48:58.532Z,8.23
2022-12-05T02:51:33.711Z,7.18
2022-12-05T02:54:08.562Z,7.25
2022-12-05T02:56:40.719Z,6.65
2022-12-05T02:59:10.889Z,6.45
2022-12-05T03:01:41.352Z,6.15
2022-12-05T03:04:16.418Z,6.40
2022-12-05T03:07:09.205Z,7.30
2022-12-05T03:09:45.843Z,8.23
2022-12-05T03:12:21.167Z,6.88
2022-12-05T03:15:04.041Z,7.40
2022-12-05T03:18:06.947Z,7.32
2022-12-05T03:20:50.547Z,12.13
2022-12-05T03:23:33.613Z,8.07
2022-12-05T03:26:41.713Z,8.20
2022-12-05T03:29:48.903Z,6.60
2022-12-05T03:32:35.086Z,6.78
2022-12-05T03:35:28.392Z,6.38
2022-12-05T03:38:15.849Z,7.63
2022-12-05T03:41:04.002Z,6.28
2022-12-05T03:43:37.321Z,6.80
2022-12-05T03:46:36.203Z,6.50
2022-12-05T03:49:39.202Z,5.82
2022-12-05T03:52:45.792Z,6.70
2022-12-05T03:55:25.967Z,6.10
2022-12-05T03:58:04.827Z,5.65
2022-12-05T04:00:41.626Z,5.40
2022-12-05T04:03:41.194Z,5.20
2022-12-05T04:06:26.454Z,5.05
2022-12-05T04:09:03.381Z,4.60
2022-12-05T04:11:39.179Z,4.70
2022-12-05T04:14:33.860Z,4.57
2022-12-05T04:17:11.408Z,4.38
2022-12-05T04:20:12.667Z,4.70
2022-12-05T04:22:43.574Z,5.20
2022-12-05T04:25:35.336Z,4.90
2022-12-05T04:28:28.236Z,5.30
2022-12-05T04:31:21.696Z,4.25
2022-12-05T04:33:59.414Z,4.57
2022-12-05T04:36:58.285Z,4.57
2022-12-05T04:39:43.942Z,4.55
2022-12-05T04:42:19.079Z,4.50
2022-12-05T04:44:55.282Z,5.18
2022-12-05T04:47:31.085Z,4.32
2022-12-05T04:50:02.897Z,3.92
2022-12-05T04:52:34.730Z,4.20
2022-12-05T04:55:22.830Z,4.80
2022-12-05T04:57:57.381Z,4.20
2022-12-05T05:00:28.595Z,4.53
2022-12-05T05:03:27.835Z,4.20
2022-12-05T05:05:59.626Z,3.60
2022-12-05T05:08:31.937Z,4.18
2022-12-05T05:11:07.581Z,4.75
2022-12-05T05:16:28.543Z,4.20
2022-12-05T05:19:16.836Z,4.20
2022-12-05T05:21:47.054Z,4.00
2022-12-05T05:24:18.151Z,3.95
2022-12-05T05:29:53.013Z,4.35
2022-12-05T05:32:41.408Z,4.63
2022-12-05T05:35:29.958Z,4.90
2022-12-05T05:38:18.208Z,5.53
2022-12-05T05:40:48.424Z,4.90
2022-12-05T05:43:18.643Z,5.75
2022-12-05T05:45:48.602Z,5.40
2022-12-05T05:48:19.770Z,4.85
2022-12-05T05:50:50.375Z,5.38
2022-12-05T05:53:20.460Z,5.80
2022-12-05T05:55:50.443Z,5.25
2022-12-05T05:58:20.778Z,4.50
2022-12-05T06:00:52.540Z,4.60
2022-12-05T06:03:22.837Z,5.00
2022-12-05T06:06:03.867Z,5.05
2022-12-05T06:08:36.848Z,4.57
2022-12-05T06:11:18.955Z,4.75
2022-12-05T06:13:56.787Z,4.30
2022-12-05T06:16:27.231Z,4.72
2022-12-05T06:19:16.433Z,5.57
2022-12-05T06:21:46.715Z,5.57
2022-12-05T06:24:16.939Z,5.90
2022-12-05T06:27:05.228Z,5.20
2022-12-05T06:29:36.216Z,5.10
2022-12-05T06:32:07.370Z,4.90
2022-12-05T06:34:38.069Z,5.28
2022-12-05T06:37:10.557Z,5.83
2022-12-05T06:39:59.077Z,4.80
2022-12-05T06:42:29.381Z,5.10
2022-12-05T06:45:01.236Z,4.65
2022-12-05T06:47:31.308Z,4.82
2022-12-05T06:50:20.731Z,4.57
2022-12-05T06:52:50.836Z,4.57
2022-12-05T06:55:20.898Z,4.65
2022-12-05T06:57:51.069Z,4.43
2022-12-05T07:00:39.941Z,4.78
2022-12-05T07:03:12.911Z,4.30
2022-12-05T07:05:43.088Z,4.68
2022-12-05T07:08:13.176Z,4.40
2022-12-05T07:10:43.799Z,4.80
2022-12-05T07:13:15.816Z,4.00
2022-12-05T07:15:46.206Z,3.95
2022-12-05T07:18:36.116Z,4.57
2022-12-05T07:21:12.811Z,4.60
2022-12-05T07:23:45.280Z,4.47
2022-12-05T07:26:19.031Z,4.28
2022-12-05T07:28:50.471Z,3.90
2022-12-05T07:31:24.830Z,4.03
2022-12-05T07:33:55.504Z,4.10
2022-12-05T07:36:27.332Z,3.90
2022-12-05T07:39:00.086Z,4.13
2022-12-05T07:41:32.974Z,4.22
2022-12-05T07:44:08.869Z,4.45
2022-12-05T07:46:38.950Z,4.32
2022-12-05T07:49:10.243Z,4.13
2022-12-05T07:51:41.138Z,4.18
2022-12-05T07:54:11.275Z,4.57
2022-12-05T07:56:46.290Z,4.50
2022-12-05T07:59:18.022Z,4.72
2022-12-05T08:01:48.853Z,4.68
2022-12-05T08:04:19.687Z,5.35
2022-12-05T08:06:49.902Z,4.88
2022-12-05T08:09:20.024Z,4.10
2022-12-05T08:11:52.761Z,5.43
2022-12-05T08:14:23.865Z,4.60
2022-12-05T08:16:54.154Z,4.85
2022-12-05T08:19:24.364Z,5.28
2022-12-05T08:21:57.201Z,5.20
2022-12-05T08:24:28.546Z,5.22
2022-12-05T08:26:58.827Z,5.90
2022-12-05T08:29:28.887Z,4.82
2022-12-05T08:31:58.867Z,5.20
2022-12-05T08:34:29.492Z,5.40
2022-12-05T08:36:59.802Z,5.05
2022-12-05T08:39:33.905Z,5.55
2022-12-05T08:42:08.202Z,5.13
2022-12-05T08:44:38.300Z,4.43
2022-12-05T08:47:08.443Z,4.80
2022-12-05T08:49:38.419Z,4.70
2022-12-05T08:52:08.487Z,4.47
2022-12-05T08:54:38.988Z,4.63
2022-12-05T08:57:09.116Z,4.38
2022-12-05T08:59:39.066Z,4.60
2022-12-05T09:02:09.423Z,4.30
2022-12-05T09:04:39.523Z,4.70
2022-12-05T09:07:10.492Z,4.82
2022-12-05T09:09:40.752Z,4.50
2022-12-05T09:12:11.077Z,5.03
2022-12-05T09:14:41.095Z,4.80
2022-12-05T09:17:11.223Z,4.53
2022-12-05T09:19:41.975Z,4.78
2022-12-05T09:22:12.134Z,4.38
2022-12-05T09:24:42.055Z,4.22
2022-12-05T09:27:12.844Z,4.40
2022-12-05T09:29:43.049Z,4.32
2022-12-05T09:32:13.668Z,4.50
2022-12-05T09:34:44.344Z,4.97
2022-12-05T09:37:37.673Z,4.63
2022-12-05T09:40:06.021Z,5.15
2022-12-05T09:43:02.877Z,4.88
2022-12-05T09:45:52.011Z,4.82
2022-12-05T09:48:25.384Z,4.53
2022-12-05T09:51:01.787Z,4.85
2022-12-05T09:53:45.792Z,5.65
2022-12-05T09:56:26.926Z,5.15
2022-12-05T09:59:00.079Z,5.15
2022-12-05T10:01:43.712Z,5.43
2022-12-05T10:04:45.101Z,5.35
2022-12-05T10:07:18.105Z,5.13
2022-12-05T10:09:57.983Z,5.75
2022-12-05T10:13:10.028Z,5.18
2022-12-05T10:15:45.794Z,5.35
2022-12-05T10:18:54.394Z,5.45
2022-12-05T10:21:36.080Z,6.38
2022-12-05T10:24:16.938Z,7.68
2022-12-05T10:26:58.645Z,10.32
2022-12-05T10:29:52.564Z,9.85
2022-12-05T10:32:29.350Z,8.82
2022-12-05T10:35:16.644Z,8.07
2022-12-05T10:37:51.339Z,7.70
2022-12-05T10:40:21.949Z,7.60
2022-12-05T10:42:53.168Z,7.80
2022-12-05T10:45:27.250Z,7.40
2022-12-05T10:47:59.799Z,7.50
2022-12-05T10:50:50.852Z,7.40
2022-12-05T10:53:42.322Z,7.80
2022-12-05T10:56:45.296Z,6.88
2022-12-05T10:59:40.393Z,6.45
2022-12-05T11:02:25.896Z,7.32
2022-12-05T11:04:57.908Z,6.65
2022-12-05T11:07:34.425Z,7.00
2022-12-05T11:10:25.053Z,7.20
2022-12-05T11:13:00.472Z,7.28
2022-12-05T11:15:33.212Z,7.28
2022-12-05T11:18:21.453Z,6.70
2022-12-05T11:24:36.160Z,7.18
2022-12-05T11:27:18.530Z,7.30
2022-12-05T11:30:21.306Z,7.10
2022-12-05T11:32:52.359Z,9.50
2022-12-05T11:38:02.521Z,8.73
2022-12-05T11:40:38.978Z,10.73
2022-12-05T11:43:24.191Z,10.80
2022-12-05T11:46:16.829Z,11.68
2022-12-05T11:48:52.987Z,11.07
2022-12-05T11:51:56.267Z,11.32
2022-12-05T11:55:14.782Z,11.85
2022-12-05T11:57:59.637Z,12.30
2022-12-05T12:03:52.821Z,14.23
2022-12-05T12:06:47.481Z,12.43
2022-12-05T12:09:41.420Z,12.02
2022-12-05T12:13:04.835Z,10.98
2022-12-05T12:16:13.414Z,11.30
2022-12-05T12:19:12.629Z,11.35
2022-12-05T12:22:05.563Z,12.50
2022-12-05T12:25:33.800Z,11.82
2022-12-05T12:28:24.745Z,12.90
2022-12-05T12:31:09.869Z,12.13
2022-12-05T12:33:58.004Z,12.75
2022-12-05T12:36:34.099Z,11.40
2022-12-05T12:39:18.952Z,11.23
2022-12-05T12:42:10.175Z,11.10
2022-12-05T12:44:43.091Z,11.77
2022-12-05T12:47:31.340Z,10.55
2022-12-05T12:50:11.707Z,11.77
2022-12-05T12:53:20.191Z,10.60
2022-12-05T12:56:03.656Z,10.73
2022-12-05T12:58:55.247Z,9.68
2022-12-05T13:01:31.181Z,10.00
2022-12-05T13:04:32.346Z,10.02
2022-12-05T13:07:18.045Z,9.23
2022-12-05T13:10:20.136Z,9.35
2022-12-05T13:12:51.515Z,10.32
2022-12-05T13:15:30.579Z,9.60
2022-12-05T13:20:51.478Z,9.93
2022-12-05T13:23:26.483Z,9.70
2022-12-05T13:25:59.381Z,10.20
2022-12-05T13:28:44.419Z,10.35
2022-12-05T13:31:43.343Z,9.38
2022-12-05T13:34:37.622Z,8.77
2022-12-05T13:37:44.606Z,9.18
2022-12-05T13:40:53.142Z,9.65
2022-12-05T13:43:30.034Z,9.45
2022-12-05T13:46:21.934Z,9.23
2022-12-05T13:49:19.617Z,9.00
2022-12-05T13:51:50.040Z,9.10
2022-12-05T13:54:25.064Z,8.93
2022-12-05T14:00:08.544Z,9.52
2022-12-05T14:02:45.004Z,8.98
2022-12-05T14:05:21.332Z,8.98
2022-12-05T14:08:03.633Z,8.98
2022-12-05T14:10:34.256Z,9.02
2022-12-05T14:13:29.097Z,9.18
2022-12-05T14:16:28.101Z,9.63
2022-12-05T14:19:43.121Z,10.73
2022-12-05T14:22:31.871Z,10.40
2022-12-05T14:26:55.209Z,8.98
2022-12-05T14:29:37.019Z,9.45
2022-12-05T14:32:30.885Z,9.00
2022-12-05T14:35:13.101Z,8.60
2022-12-05T14:38:09.336Z,8.57
2022-12-05T14:40:44.983Z,8.15
2022-12-05T14:43:31.832Z,7.93
2022-12-05T14:46:08.923Z,8.43
2022-12-05T14:48:47.571Z,8.43
2022-12-05T14:51:33.399Z,8.02
2022-12-05T14:54:14.627Z,8.77
2022-12-05T14:59:39.054Z,7.30
2022-12-05T15:02:18.963Z,8.10
2022-12-05T15:04:56.944Z,8.10
2022-12-05T15:07:43.256Z,8.02
2022-12-05T15:10:37.321Z,7.03
2022-12-05T15:16:19.361Z,7.72
2022-12-05T15:18:54.504Z,8.13
2022-12-05T15:21:47.478Z,7.50
2022-12-05T15:24:22.631Z,7.70
2022-12-05T15:26:59.553Z,7.93
2022-12-05T15:29:35.027Z,8.07
2022-12-05T15:32:18.334Z,7.30
2022-12-05T15:34:57.043Z,7.68
2022-12-05T15:37:48.378Z,8.00
2022-12-05T15:40:24.117Z,7.72
2022-12-05T15:42:59.907Z,7.97
2022-12-05T15:45:32.884Z,7.38
2022-12-05T15:50:55.341Z,7.70
2022-12-05T15:53:36.546Z,8.27
2022-12-05T15:56:26.896Z,8.10
2022-12-05T15:59:25.263Z,8.10
2022-12-05T16:02:04.433Z,8.20
2022-12-05T16:04:45.642Z,7.90
2022-12-05T16:07:17.849Z,8.15
2022-12-05T16:09:49.815Z,8.57
2022-12-05T16:12:58.151Z,8.93
2022-12-05T16:15:32.925Z,8.95
2022-12-05T16:18:06.410Z,8.05
2022-12-05T16:20:38.945Z,8.05
2022-12-05T16:23:28.341Z,8.27
2022-12-05T16:26:34.300Z,8.38
2022-12-05T16:29:06.605Z,8.27
2022-12-05T16:31:37.238Z,8.57
2022-12-05T16:34:10.701Z,8.53
2022-12-05T16:36:53.584Z,8.23
2022-12-05T16:39:24.642Z,7.93
2022-12-05T16:41:55.138Z,7.50
2022-12-05T16:44:48.740Z,8.67
2022-12-05T16:47:45.008Z,8.18
2022-12-05T16:50:35.334Z,8.95
2022-12-05T16:53:27.346Z,8.60
2022-12-05T16:55:58.499Z,8.52
2022-12-05T16:58:32.294Z,8.65
2022-12-05T17:01:05.476Z,8.80
2022-12-05T17:03:37.263Z,8.13
2022-12-05T17:06:07.801Z,8.77
2022-12-05T17:08:37.994Z,8.57
2022-12-05T17:11:09.009Z,8.73
2022-12-05T17:13:39.412Z,8.63
2022-12-05T17:16:10.191Z,8.83
2022-12-05T17:18:40.385Z,8.27
2022-12-05T17:21:18.474Z,8.38
2022-12-05T17:23:49.725Z,8.25
2022-12-05T17:28:52.137Z,9.13
2022-12-05T17:31:24.878Z,9.00
2022-12-05T17:33:56.478Z,8.50
2022-12-05T17:36:26.941Z,8.95
2022-12-05T17:38:57.090Z,9.00
2022-12-05T17:41:27.117Z,9.60
2022-12-05T17:43:57.783Z,8.48
2022-12-05T17:46:28.054Z,8.20
2022-12-05T17:48:58.308Z,9.32
2022-12-05T17:51:29.004Z,8.85
2022-12-05T17:53:59.380Z,8.18
2022-12-05T17:56:30.026Z,9.10
2022-12-05T17:59:04.234Z,9.63
2022-12-05T18:01:37.589Z,8.63
2022-12-05T18:04:07.964Z,9.02
2022-12-05T18:06:38.077Z,9.38
2022-12-05T18:09:08.291Z,9.25
2022-12-05T18:11:38.230Z,8.93
2022-12-05T18:14:08.201Z,9.40
2022-12-05T18:16:38.338Z,9.20
2022-12-05T18:19:10.396Z,8.60
2022-12-05T18:21:40.938Z,9.70
2022-12-05T18:24:11.152Z,9.47
2022-12-05T18:26:41.512Z,9.15
2022-12-05T18:29:11.678Z,9.05
2022-12-05T18:31:43.740Z,9.45
2022-12-05T18:34:14.045Z,9.38
2022-12-05T18:36:44.501Z,9.20
2022-12-05T18:42:03.841Z,9.43
2022-12-05T18:44:34.916Z,9.27
2022-12-05T18:47:05.525Z,8.82
2022-12-05T18:49:35.805Z,8.87
2022-12-05T18:52:05.877Z,8.95
2022-12-05T18:55:09.831Z,9.35
2022-12-05T18:57:45.766Z,9.23
2022-12-05T19:00:16.542Z,9.07
2022-12-05T19:02:46.821Z,8.80
2022-12-05T19:05:17.054Z,9.73
2022-12-05T19:07:48.671Z,9.93
2022-12-05T19:10:19.011Z,9.07
2022-12-05T19:12:49.078Z,8.82
2022-12-05T19:18:04.882Z,9.30
2022-12-05T19:20:34.860Z,10.20
2022-12-05T19:23:04.786Z,8.85
2022-12-05T19:25:56.604Z,10.43
2022-12-05T19:28:27.144Z,9.52
2022-12-05T19:31:15.749Z,9.20
2022-12-05T19:33:48.223Z,9.88
2022-12-05T19:39:16.116Z,9.48
2022-12-05T19:41:46.889Z,9.00
2022-12-05T19:44:17.495Z,8.50
2022-12-05T19:46:47.739Z,9.07
2022-12-05T19:49:22.373Z,9.73
2022-12-05T19:51:52.646Z,9.02
2022-12-05T19:54:24.415Z,9.13
2022-12-05T19:56:55.914Z,8.90
2022-12-05T19:59:44.430Z,8.25
2022-12-05T20:02:14.864Z,8.43
2022-12-05T20:04:45.450Z,8.07
2022-12-05T20:07:15.718Z,8.03
2022-12-05T20:09:45.997Z,8.02
2022-12-05T20:12:16.328Z,8.73
2022-12-05T20:14:46.292Z,9.13
2022-12-05T20:17:16.476Z,7.70
2022-12-05T20:19:47.375Z,7.80
2022-12-05T20:22:17.549Z,8.13
2022-12-05T20:24:47.700Z,6.50
2022-12-05T20:27:17.692Z,6.70
2022-12-05T20:29:47.849Z,6.18
2022-12-05T20:32:18.444Z,6.70
2022-12-05T20:34:48.714Z,6.00
2022-12-05T20:37:18.805Z,5.72
2022-12-05T20:39:48.889Z,6.05
2022-12-05T20:42:20.034Z,5.63
2022-12-05T20:44:50.274Z,5.55
2022-12-05T20:47:21.022Z,5.45
2022-12-05T20:49:51.182Z,5.10
2022-12-05T20:52:21.257Z,5.15
2022-12-05T20:54:51.274Z,5.47
2022-12-05T20:57:21.408Z,4.72
2022-12-05T20:59:51.559Z,5.20
2022-12-05T21:02:22.378Z,4.57
2022-12-05T21:04:52.605Z,4.30
2022-12-05T21:07:22.674Z,4.63
2022-12-05T21:09:52.602Z,4.22
2022-12-05T21:12:23.368Z,4.32
2022-12-05T21:14:54.762Z,4.30
2022-12-05T21:17:43.318Z,4.30
2022-12-05T21:20:13.875Z,4.10
2022-12-05T21:22:43.965Z,4.17
2022-12-05T21:25:13.961Z,4.18
2022-12-05T21:27:43.965Z,3.80
2022-12-05T21:30:14.859Z,4.07
2022-12-05T21:32:45.661Z,4.00
2022-12-05T21:35:15.964Z,4.13
2022-12-05T21:37:46.128Z,4.20
2022-12-05T21:40:16.382Z,4.30
2022-12-05T21:42:46.322Z,4.03
2022-12-05T21:45:16.382Z,4.22
2022-12-05T21:47:47.195Z,3.90
2022-12-05T21:53:21.908Z,4.20
2022-12-05T21:56:01.931Z,4.33
2022-12-05T21:58:32.136Z,4.10
2022-12-05T22:01:02.546Z,4.13
2022-12-05T22:03:32.740Z,4.60
2022-12-05T22:06:11.464Z,4.10
2022-12-05T22:08:42.157Z,4.00
2022-12-05T22:11:16.716Z,3.67
2022-12-05T22:13:48.159Z,3.75
2022-12-05T22:16:19.764Z,3.30
2022-12-05T22:18:50.803Z,3.70
2022-12-05T22:21:22.966Z,2.80
2022-12-05T22:23:53.387Z,2.90
2022-12-05T22:26:26.335Z,3.40
2022-12-05T22:28:58.368Z,3.50
2022-12-05T22:31:28.557Z,3.28
2022-12-05T22:33:58.789Z,2.63
2022-12-05T22:36:28.812Z,3.30
2022-12-05T22:38:58.784Z,3.35
2022-12-05T22:41:29.244Z,2.88
2022-12-05T22:44:02.134Z,2.40
2022-12-05T22:46:32.380Z,3.15
2022-12-05T22:49:05.432Z,2.40
2022-12-05T22:51:35.929Z,2.63
2022-12-05T22:55:20.917Z,2.60
2022-12-05T22:57:50.993Z,2.30
2022-12-05T23:00:21.221Z,2.78
2022-12-05T23:02:51.399Z,2.90
2022-12-05T23:05:21.601Z,2.85
2022-12-05T23:07:52.075Z,2.92
2022-12-05T23:10:22.347Z,2.43
2022-12-05T23:12:52.455Z,2.10
2022-12-05T23:15:25.504Z,2.33
2022-12-05T23:17:57.045Z,2.80
2022-12-05T23:20:27.278Z,2.38
2022-12-05T23:22:57.463Z,2.43
2022-12-05T23:25:27.405Z,2.35
2022-12-05T23:27:57.295Z,2.35
2022-12-05T23:30:27.456Z,2.50
2022-12-05T23:32:57.494Z,2.33
2022-12-05T23:35:27.627Z,2.65
2022-12-05T23:37:57.549Z,2.58
2022-12-05T23:40:27.512Z,2.55
2022-12-05T23:42:57.487Z,2.53
2022-12-05T23:48:12.897Z,2.92
2022-12-05T23:50:43.027Z,2.67
2022-12-05T23:53:14.713Z,5.57
2022-12-05T23:55:44.969Z,3.40
2022-12-05T23:58:14.945Z,5.07
